createdAt,value
2022-08-24T00:01:32.000Z,287.77
2022-08-24T00:02:58.000Z,287.84
2022-08-24T00:05:05.000Z,287.9
2022-08-24T00:06:38.000Z,287.77
2022-08-24T00:08:44.000Z,287.84
2022-08-24T00:10:11.000Z,287.9
2022-08-24T00:12:17.000Z,287.9
2022-08-24T00:15:08.000Z,287.71
2022-08-24T00:16:34.000Z,287.77
2022-08-24T00:18:40.000Z,287.71
2022-08-24T00:20:07.000Z,287.65
2022-08-24T00:22:13.000Z,287.65
2022-08-24T00:23:39.000Z,287.77
2022-08-24T00:25:46.000Z,287.84
2022-08-24T00:27:12.000Z,287.84
2022-08-24T00:29:18.000Z,287.65
2022-08-24T00:30:45.000Z,287.46
2022-08-24T00:32:51.000Z,287.34
2022-08-24T00:34:17.000Z,287.34
2022-08-24T00:36:23.000Z,287.27
2022-08-24T00:37:50.000Z,287.27
2022-08-24T00:39:56.000Z,287.21
2022-08-24T00:41:23.000Z,287.21
2022-08-24T00:43:29.000Z,287.15
2022-08-24T00:44:55.000Z,287.21
2022-08-24T00:47:01.000Z,287.27
2022-08-24T00:48:28.000Z,287.27
2022-08-24T00:50:34.000Z,287.15
2022-08-24T00:53:25.000Z,287.21
2022-08-24T00:54:52.000Z,287.21
2022-08-24T00:56:58.000Z,287.15
2022-08-24T00:58:24.000Z,287.21
2022-08-24T01:00:31.000Z,287.21
2022-08-24T01:01:57.000Z,287.21
2022-08-24T01:04:19.000Z,287.21
2022-08-24T01:05:45.000Z,287.15
2022-08-24T01:07:51.000Z,287.15
2022-08-24T01:09:18.000Z,287.15
2022-08-24T01:11:24.000Z,287.15
2022-08-24T01:12:55.000Z,287.21
2022-08-24T01:15:05.000Z,287.15
2022-08-24T01:16:31.000Z,287.15
2022-08-24T01:18:37.000Z,287.15
2022-08-24T01:20:04.000Z,287.09
2022-08-24T01:22:10.000Z,287.09
2022-08-24T01:23:37.000Z,287.02
2022-08-24T01:25:43.000Z,287.02
2022-08-24T01:27:10.000Z,287.09
2022-08-24T01:29:16.000Z,287.02
2022-08-24T01:32:08.000Z,286.9
2022-08-24T01:33:35.000Z,286.9
2022-08-24T01:35:41.000Z,286.84
2022-08-24T01:37:07.000Z,286.9
2022-08-24T01:39:13.000Z,286.96
2022-08-24T01:40:40.000Z,286.96
2022-08-24T01:42:46.000Z,286.84
2022-08-24T01:44:13.000Z,286.77
2022-08-24T01:46:19.000Z,286.71
2022-08-24T01:47:45.000Z,286.77
2022-08-24T01:49:51.000Z,286.77
2022-08-24T01:51:18.000Z,286.71
2022-08-24T01:53:24.000Z,286.71
2022-08-24T01:54:51.000Z,286.71
2022-08-24T01:56:57.000Z,286.71
2022-08-24T01:58:24.000Z,286.65
2022-08-24T02:00:30.000Z,286.52
2022-08-24T02:01:56.000Z,286.46
2022-08-24T02:04:03.000Z,286.46
2022-08-24T02:05:29.000Z,286.52
2022-08-24T02:07:35.000Z,286.59
2022-08-24T02:10:27.000Z,286.59
2022-08-24T02:11:53.000Z,286.52
2022-08-24T02:13:59.000Z,286.46
2022-08-24T02:15:26.000Z,286.46
2022-08-24T02:17:32.000Z,286.4
2022-08-24T02:18:58.000Z,286.46
2022-08-24T02:21:04.000Z,286.27
2022-08-24T02:22:31.000Z,286.21
2022-08-24T02:24:37.000Z,286.15
2022-08-24T02:26:03.000Z,286.21
2022-08-24T02:28:09.000Z,286.21
2022-08-24T02:29:36.000Z,286.21
2022-08-24T02:31:42.000Z,286.27
2022-08-24T02:33:09.000Z,286.27
2022-08-24T02:35:15.000Z,286.27
2022-08-24T02:36:41.000Z,286.27
2022-08-24T02:38:47.000Z,286.27
2022-08-24T02:40:14.000Z,286.21
2022-08-24T02:42:20.000Z,286.34
2022-08-24T02:43:46.000Z,286.34
2022-08-24T02:45:53.000Z,286.15
2022-08-24T02:48:44.000Z,286.21
2022-08-24T02:50:21.000Z,286.15
2022-08-24T02:52:27.000Z,286.15
2022-08-24T02:53:53.000Z,286.15
2022-08-24T02:55:59.000Z,286.15
2022-08-24T02:57:26.000Z,286.15
2022-08-24T02:59:32.000Z,286.09
2022-08-24T03:00:58.000Z,286.09
2022-08-24T03:03:05.000Z,286.09
2022-08-24T03:04:31.000Z,286.09
2022-08-24T03:06:38.000Z,286.02
2022-08-24T03:08:04.000Z,285.96
2022-08-24T03:10:11.000Z,285.96
2022-08-24T03:11:37.000Z,285.96
2022-08-24T03:13:49.000Z,285.84
2022-08-24T03:15:15.000Z,285.84
2022-08-24T03:17:24.000Z,285.84
2022-08-24T03:18:51.000Z,285.84
2022-08-24T03:20:58.000Z,285.84
2022-08-24T03:22:25.000Z,285.84
2022-08-24T03:24:31.000Z,285.84
2022-08-24T03:27:22.000Z,285.77
2022-08-24T03:28:48.000Z,285.77
2022-08-24T03:30:55.000Z,285.71
2022-08-24T03:32:22.000Z,285.77
2022-08-24T03:34:28.000Z,285.71
2022-08-24T03:35:55.000Z,285.77
2022-08-24T03:38:01.000Z,285.71
2022-08-24T03:39:27.000Z,285.71
2022-08-24T03:41:33.000Z,285.59
2022-08-24T03:43:01.000Z,285.59
2022-08-24T03:45:07.000Z,285.52
2022-08-24T03:46:37.000Z,285.65
2022-08-24T03:48:43.000Z,285.59
2022-08-24T03:50:09.000Z,285.65
2022-08-24T03:52:15.000Z,285.65
2022-08-24T03:53:42.000Z,285.65
2022-08-24T03:55:48.000Z,285.65
2022-08-24T03:57:14.000Z,285.65
2022-08-24T03:59:21.000Z,285.59
2022-08-24T04:00:47.000Z,285.52
2022-08-24T04:02:54.000Z,285.52
2022-08-24T04:05:45.000Z,285.46
2022-08-24T04:07:12.000Z,285.52
2022-08-24T04:09:18.000Z,285.46
2022-08-24T04:10:45.000Z,285.46
2022-08-24T04:12:51.000Z,285.46
2022-08-24T04:14:19.000Z,285.46
2022-08-24T04:16:31.000Z,285.46
2022-08-24T04:17:58.000Z,285.46
2022-08-24T04:20:04.000Z,285.46
2022-08-24T04:21:31.000Z,285.4
2022-08-24T04:23:39.000Z,285.34
2022-08-24T04:25:12.000Z,285.46
2022-08-24T04:27:18.000Z,285.27
2022-08-24T04:28:44.000Z,285.34
2022-08-24T04:30:51.000Z,285.34
2022-08-24T04:32:17.000Z,285.4
2022-08-24T04:34:23.000Z,285.27
2022-08-24T04:35:50.000Z,285.27
2022-08-24T04:37:56.000Z,285.27
2022-08-24T04:39:22.000Z,285.34
2022-08-24T04:41:29.000Z,285.34
2022-08-24T04:44:21.000Z,285.34
2022-08-24T04:45:47.000Z,285.4
2022-08-24T04:47:53.000Z,285.4
2022-08-24T04:49:21.000Z,285.4
2022-08-24T04:51:27.000Z,285.4
2022-08-24T04:53:01.000Z,285.46
2022-08-24T04:55:07.000Z,285.46
2022-08-24T04:56:33.000Z,285.34
2022-08-24T04:58:39.000Z,285.34
2022-08-24T05:00:06.000Z,285.4
2022-08-24T05:02:12.000Z,285.65
2022-08-24T05:03:39.000Z,285.65
2022-08-24T05:05:45.000Z,285.65
2022-08-24T05:07:12.000Z,285.65
2022-08-24T05:09:18.000Z,285.59
2022-08-24T05:10:44.000Z,285.59
2022-08-24T05:12:50.000Z,285.59
2022-08-24T05:14:17.000Z,285.59
2022-08-24T05:16:23.000Z,285.65
2022-08-24T05:17:50.000Z,285.71
2022-08-24T05:19:56.000Z,285.59
2022-08-24T05:22:47.000Z,285.71
2022-08-24T05:24:19.000Z,285.77
2022-08-24T05:26:26.000Z,285.84
2022-08-24T05:27:52.000Z,285.9
2022-08-24T05:29:58.000Z,286.02
2022-08-24T05:31:25.000Z,286.15
2022-08-24T05:33:31.000Z,286.34
2022-08-24T05:34:57.000Z,286.34
2022-08-24T05:37:03.000Z,286.4
2022-08-24T05:38:30.000Z,286.52
2022-08-24T05:40:36.000Z,286.65
2022-08-24T05:42:03.000Z,286.77
2022-08-24T05:44:09.000Z,286.84
2022-08-24T05:45:35.000Z,286.84
2022-08-24T05:47:41.000Z,286.71
2022-08-24T05:49:08.000Z,286.77
2022-08-24T05:51:14.000Z,286.84
2022-08-24T05:52:40.000Z,286.84
2022-08-24T05:54:47.000Z,287.02
2022-08-24T05:56:13.000Z,287.15
2022-08-24T05:58:19.000Z,287.21
2022-08-24T06:01:20.000Z,287.27
2022-08-24T06:02:47.000Z,287.4
2022-08-24T06:04:53.000Z,287.46
2022-08-24T06:06:19.000Z,287.52
2022-08-24T06:08:26.000Z,287.59
2022-08-24T06:09:52.000Z,287.65
2022-08-24T06:11:58.000Z,287.71
2022-08-24T06:13:25.000Z,287.77
2022-08-24T06:15:31.000Z,287.9
2022-08-24T06:16:57.000Z,287.96
2022-08-24T06:19:04.000Z,288.02
2022-08-24T06:20:30.000Z,288.02
2022-08-24T06:22:36.000Z,287.96
2022-08-24T06:24:03.000Z,287.96
2022-08-24T06:26:09.000Z,288.02
2022-08-24T06:27:40.000Z,288.15
2022-08-24T06:29:46.000Z,288.15
2022-08-24T06:31:13.000Z,288.15
2022-08-24T06:33:19.000Z,288.27
2022-08-24T06:34:46.000Z,288.34
2022-08-24T06:36:52.000Z,288.46
2022-08-24T06:39:43.000Z,288.52
2022-08-24T06:41:10.000Z,288.65
2022-08-24T06:43:16.000Z,288.84
2022-08-24T06:44:43.000Z,288.96
2022-08-24T06:46:49.000Z,289.02
2022-08-24T06:48:15.000Z,289.09
2022-08-24T06:50:21.000Z,289.09
2022-08-24T06:51:49.000Z,289.21
2022-08-24T06:53:55.000Z,289.34
2022-08-24T06:55:21.000Z,289.52
2022-08-24T06:57:27.000Z,289.71
2022-08-24T06:58:54.000Z,289.71
2022-08-24T07:01:00.000Z,289.84
2022-08-24T07:02:26.000Z,289.9
2022-08-24T07:04:33.000Z,290.02
2022-08-24T07:05:59.000Z,290.15
2022-08-24T07:08:05.000Z,290.09
2022-08-24T07:09:32.000Z,290.15
2022-08-24T07:11:38.000Z,290.34
2022-08-24T07:13:04.000Z,290.4
2022-08-24T07:15:11.000Z,290.59
2022-08-24T07:18:05.000Z,290.84
2022-08-24T07:19:32.000Z,290.9
2022-08-24T07:21:38.000Z,290.96
2022-08-24T07:23:04.000Z,291.02
2022-08-24T07:25:10.000Z,291.09
2022-08-24T07:26:37.000Z,291.21
2022-08-24T07:28:43.000Z,291.27
2022-08-24T07:30:09.000Z,291.4
2022-08-24T07:32:31.000Z,291.52
2022-08-24T07:33:58.000Z,291.65
2022-08-24T07:36:04.000Z,291.71
2022-08-24T07:37:30.000Z,291.9
2022-08-24T07:39:45.000Z,291.96
2022-08-24T07:41:12.000Z,291.96
2022-08-24T07:43:47.000Z,292.15
2022-08-24T07:45:13.000Z,292.27
2022-08-24T07:47:20.000Z,292.4
2022-08-24T07:49:03.000Z,292.4
2022-08-24T07:51:24.000Z,292.52
2022-08-24T07:52:51.000Z,292.59
2022-08-24T07:54:57.000Z,292.71
2022-08-24T07:57:48.000Z,292.9
2022-08-24T07:59:15.000Z,292.96
2022-08-24T08:01:21.000Z,293.15
2022-08-24T08:02:47.000Z,293.21
2022-08-24T08:04:53.000Z,293.34
2022-08-24T08:06:20.000Z,293.4
2022-08-24T08:08:26.000Z,293.59
2022-08-24T08:09:53.000Z,293.65
2022-08-24T08:11:59.000Z,293.71
2022-08-24T08:13:25.000Z,293.77
2022-08-24T08:15:32.000Z,293.96
2022-08-24T08:16:58.000Z,294.02
2022-08-24T08:19:04.000Z,294.27
2022-08-24T08:20:35.000Z,294.34
2022-08-24T08:22:41.000Z,294.46
2022-08-24T08:24:08.000Z,294.46
2022-08-24T08:26:14.000Z,294.52
2022-08-24T08:29:47.000Z,294.77
2022-08-24T08:31:13.000Z,294.84
2022-08-24T08:33:20.000Z,294.9
2022-08-24T08:36:11.000Z,295.09
2022-08-24T08:37:38.000Z,295.21
2022-08-24T08:39:44.000Z,295.4
2022-08-24T08:41:11.000Z,295.52
2022-08-24T08:43:17.000Z,295.65
2022-08-24T08:44:44.000Z,295.65
2022-08-24T08:46:50.000Z,295.65
2022-08-24T08:48:16.000Z,295.77
2022-08-24T08:50:23.000Z,295.9
2022-08-24T08:51:49.000Z,295.9
2022-08-24T08:53:55.000Z,296.02
2022-08-24T08:55:22.000Z,295.96
2022-08-24T08:57:28.000Z,296.09
2022-08-24T08:58:55.000Z,296.09
2022-08-24T09:01:04.000Z,296.21
2022-08-24T09:04:36.000Z,296.4
2022-08-24T09:06:03.000Z,296.4
2022-08-24T09:08:09.000Z,296.52
2022-08-24T09:09:39.000Z,296.65
2022-08-24T09:11:46.000Z,296.71
2022-08-24T09:14:37.000Z,296.77
2022-08-24T09:16:05.000Z,296.71
2022-08-24T09:18:15.000Z,296.77
2022-08-24T09:19:41.000Z,296.84
2022-08-24T09:21:47.000Z,297.09
2022-08-24T09:23:18.000Z,297.15
2022-08-24T09:25:24.000Z,297.21
2022-08-24T09:26:51.000Z,297.34
2022-08-24T09:28:57.000Z,297.34
2022-08-24T09:30:24.000Z,297.52
2022-08-24T09:32:31.000Z,297.46
2022-08-24T09:33:57.000Z,297.4
2022-08-24T09:36:03.000Z,297.34
2022-08-24T09:37:30.000Z,297.46
2022-08-24T09:39:36.000Z,297.4
2022-08-24T09:41:02.000Z,297.46
2022-08-24T09:43:09.000Z,297.59
2022-08-24T09:44:35.000Z,297.59
2022-08-24T09:46:41.000Z,297.65
2022-08-24T09:48:08.000Z,297.65
2022-08-24T09:50:20.000Z,297.77
2022-08-24T09:53:11.000Z,297.84
2022-08-24T09:54:38.000Z,297.96
2022-08-24T09:56:44.000Z,297.9
2022-08-24T09:58:10.000Z,298.02
2022-08-24T10:00:17.000Z,298.21
2022-08-24T10:01:43.000Z,298.52
2022-08-24T10:03:49.000Z,298.65
2022-08-24T10:05:16.000Z,298.84
2022-08-24T10:07:22.000Z,299.15
2022-08-24T10:08:49.000Z,299.15
2022-08-24T10:10:55.000Z,299.27
2022-08-24T10:12:21.000Z,299.27
2022-08-24T10:14:28.000Z,299.27
2022-08-24T10:15:54.000Z,299.34
2022-08-24T10:18:00.000Z,299.52
2022-08-24T10:19:27.000Z,299.4
2022-08-24T10:21:33.000Z,299.52
2022-08-24T10:23:00.000Z,299.52
2022-08-24T10:25:06.000Z,299.46
2022-08-24T10:26:33.000Z,299.46
2022-08-24T10:28:39.000Z,299.65
2022-08-24T10:31:30.000Z,300.21
2022-08-24T10:32:57.000Z,300.09
2022-08-24T10:35:03.000Z,299.96
2022-08-24T10:36:32.000Z,299.9
2022-08-24T10:38:38.000Z,299.84
2022-08-24T10:40:05.000Z,299.9
2022-08-24T10:42:13.000Z,300.09
2022-08-24T10:43:41.000Z,300.4
2022-08-24T10:45:47.000Z,300.4
2022-08-24T10:47:14.000Z,300.27
2022-08-24T10:49:20.000Z,300.52
2022-08-24T10:50:47.000Z,300.65
2022-08-24T10:52:53.000Z,300.77
2022-08-24T10:54:19.000Z,300.71
2022-08-24T10:56:25.000Z,300.77
2022-08-24T10:57:52.000Z,301.02
2022-08-24T10:59:58.000Z,300.96
2022-08-24T11:01:25.000Z,301.09
2022-08-24T11:03:31.000Z,301.09
2022-08-24T11:04:57.000Z,301.15
2022-08-24T11:07:03.000Z,301.21
2022-08-24T11:09:55.000Z,301.34
2022-08-24T11:11:21.000Z,301.27
2022-08-24T11:13:27.000Z,301.27
2022-08-24T11:14:54.000Z,301.21
2022-08-24T11:17:00.000Z,301.4
2022-08-24T11:18:27.000Z,301.52
2022-08-24T11:20:33.000Z,301.52
2022-08-24T11:21:59.000Z,301.71
2022-08-24T11:24:05.000Z,301.71
2022-08-24T11:25:32.000Z,301.77
2022-08-24T11:27:38.000Z,302.02
2022-08-24T11:29:05.000Z,301.96
2022-08-24T11:31:11.000Z,301.9
2022-08-24T11:32:38.000Z,302.09
2022-08-24T11:34:44.000Z,302.02
2022-08-24T11:36:10.000Z,301.9
2022-08-24T11:38:25.000Z,302.09
2022-08-24T11:39:51.000Z,302.21
2022-08-24T11:41:58.000Z,302.27
2022-08-24T11:43:25.000Z,302.21
2022-08-24T11:45:31.000Z,302.15
2022-08-24T11:48:22.000Z,302.21
2022-08-24T11:49:54.000Z,302.15
2022-08-24T11:52:00.000Z,302.34
2022-08-24T11:53:27.000Z,302.46
2022-08-24T11:55:33.000Z,302.4
2022-08-24T11:57:16.000Z,302.4
2022-08-24T11:59:22.000Z,302.46
2022-08-24T12:00:48.000Z,302.52
2022-08-24T12:02:55.000Z,302.4
2022-08-24T12:04:21.000Z,302.46
2022-08-24T12:06:28.000Z,302.46
2022-08-24T12:07:57.000Z,302.52
2022-08-24T12:10:03.000Z,302.46
2022-08-24T12:11:29.000Z,302.46
2022-08-24T12:13:36.000Z,302.52
2022-08-24T12:15:02.000Z,302.59
2022-08-24T12:17:08.000Z,302.71
2022-08-24T12:18:35.000Z,302.59
2022-08-24T12:20:41.000Z,302.34
2022-08-24T12:22:12.000Z,302.46
2022-08-24T12:24:18.000Z,302.65
2022-08-24T12:27:10.000Z,302.71
2022-08-24T12:28:36.000Z,302.71
2022-08-24T12:30:42.000Z,302.71
2022-08-24T12:32:09.000Z,302.71
2022-08-24T12:34:15.000Z,302.96
2022-08-24T12:35:42.000Z,303.02
2022-08-24T12:37:48.000Z,303.02
2022-08-24T12:39:14.000Z,302.96
2022-08-24T12:41:21.000Z,302.96
2022-08-24T12:42:47.000Z,303.02
2022-08-24T12:44:56.000Z,303.09
2022-08-24T12:46:23.000Z,303.15
2022-08-24T12:48:29.000Z,303.09
2022-08-24T12:49:56.000Z,303.02
2022-08-24T12:52:02.000Z,303.02
2022-08-24T12:53:28.000Z,303.15
2022-08-24T12:55:35.000Z,303.15
2022-08-24T12:57:05.000Z,303.09
2022-08-24T12:59:11.000Z,303.09
2022-08-24T13:00:38.000Z,303.21
2022-08-24T13:02:44.000Z,303.27
2022-08-24T13:05:37.000Z,303.4
2022-08-24T13:07:04.000Z,303.52
2022-08-24T13:09:10.000Z,303.71
2022-08-24T13:10:37.000Z,303.71
2022-08-24T13:12:43.000Z,303.65
2022-08-24T13:14:10.000Z,303.65
2022-08-24T13:16:16.000Z,303.77
2022-08-24T13:17:43.000Z,303.9
2022-08-24T13:19:49.000Z,304.02
2022-08-24T13:21:15.000Z,304.09
2022-08-24T13:23:22.000Z,303.77
2022-08-24T13:24:48.000Z,303.9
2022-08-24T13:26:54.000Z,304.02
2022-08-24T13:28:21.000Z,304.02
2022-08-24T13:30:27.000Z,304.09
2022-08-24T13:31:53.000Z,304.09
2022-08-24T13:34:00.000Z,304.02
2022-08-24T13:35:26.000Z,304.02
2022-08-24T13:37:32.000Z,304.02
2022-08-24T13:38:59.000Z,304.09
2022-08-24T13:41:05.000Z,304.15
2022-08-24T13:43:57.000Z,304.34
2022-08-24T13:45:23.000Z,304.27
2022-08-24T13:47:29.000Z,304.4
2022-08-24T13:48:56.000Z,304.4
2022-08-24T13:51:02.000Z,304.4
2022-08-24T13:52:29.000Z,304.34
2022-08-24T13:54:35.000Z,304.52
2022-08-24T13:56:09.000Z,304.65
2022-08-24T13:58:16.000Z,304.59
2022-08-24T13:59:42.000Z,304.71
2022-08-24T14:01:48.000Z,304.84
2022-08-24T14:03:15.000Z,304.84
2022-08-24T14:05:21.000Z,304.84
2022-08-24T14:06:48.000Z,304.77
2022-08-24T14:08:54.000Z,304.84
2022-08-24T14:10:20.000Z,305.02
2022-08-24T14:12:27.000Z,304.9
2022-08-24T14:13:53.000Z,305.09
2022-08-24T14:15:59.000Z,304.71
2022-08-24T14:17:26.000Z,304.9
2022-08-24T14:19:40.000Z,305.02
2022-08-24T14:22:31.000Z,305.09
2022-08-24T14:23:57.000Z,305.09
2022-08-24T14:26:03.000Z,304.59
2022-08-24T14:27:30.000Z,304.77
2022-08-24T14:29:36.000Z,304.96
2022-08-24T14:31:03.000Z,305.02
2022-08-24T14:33:09.000Z,305.09
2022-08-24T14:34:35.000Z,305.15
2022-08-24T14:36:42.000Z,305.21
2022-08-24T14:38:08.000Z,305.09
2022-08-24T14:40:17.000Z,305.15
2022-08-24T14:41:43.000Z,305.21
2022-08-24T14:43:50.000Z,305.09
2022-08-24T14:45:17.000Z,305.02
2022-08-24T14:47:23.000Z,305.02
2022-08-24T14:48:49.000Z,305.15
2022-08-24T14:50:59.000Z,305.4
2022-08-24T14:52:25.000Z,305.09
2022-08-24T14:54:32.000Z,305.02
2022-08-24T14:55:58.000Z,305.02
2022-08-24T14:58:05.000Z,305.02
2022-08-24T15:00:56.000Z,304.96
2022-08-24T15:02:23.000Z,304.9
2022-08-24T15:04:29.000Z,304.96
2022-08-24T15:06:02.000Z,304.77
2022-08-24T15:08:30.000Z,304.59
2022-08-24T15:09:57.000Z,304.65
2022-08-24T15:12:03.000Z,304.52
2022-08-24T15:13:29.000Z,304.46
2022-08-24T15:15:36.000Z,304.46
2022-08-24T15:17:02.000Z,304.65
2022-08-24T15:19:08.000Z,304.59
2022-08-24T15:20:36.000Z,304.46
2022-08-24T15:22:42.000Z,304.34
2022-08-24T15:24:09.000Z,304.34
2022-08-24T15:26:15.000Z,304.27
2022-08-24T15:27:41.000Z,304.27
2022-08-24T15:29:48.000Z,304.15
2022-08-24T15:31:14.000Z,304.02
2022-08-24T15:33:20.000Z,304.15
2022-08-24T15:34:47.000Z,304.21
2022-08-24T15:36:53.000Z,304.02
2022-08-24T15:39:44.000Z,304.27
2022-08-24T15:41:11.000Z,304.34
2022-08-24T15:43:17.000Z,304.21
2022-08-24T15:44:44.000Z,304.34
2022-08-24T15:46:50.000Z,304.09
2022-08-24T15:48:16.000Z,304.09
2022-08-24T15:50:23.000Z,304.15
2022-08-24T15:51:49.000Z,304.21
2022-08-24T15:53:55.000Z,304.21
2022-08-24T15:55:22.000Z,304.15
2022-08-24T15:57:28.000Z,304.27
2022-08-24T15:58:54.000Z,304.21
2022-08-24T16:01:01.000Z,304.15
2022-08-24T16:02:27.000Z,304.09
2022-08-24T16:04:34.000Z,304.02
2022-08-24T16:06:00.000Z,304.09
2022-08-24T16:08:06.000Z,304.09
2022-08-24T16:09:33.000Z,304.15
2022-08-24T16:11:39.000Z,303.96
2022-08-24T16:13:06.000Z,304.09
2022-08-24T16:15:12.000Z,304.15
2022-08-24T16:18:03.000Z,304.21
2022-08-24T16:19:30.000Z,304.21
2022-08-24T16:21:36.000Z,304.09
2022-08-24T16:23:03.000Z,304.09
2022-08-24T16:25:09.000Z,304.02
2022-08-24T16:26:35.000Z,303.9
2022-08-24T16:28:41.000Z,303.84
2022-08-24T16:30:08.000Z,304.02
2022-08-24T16:32:16.000Z,303.96
2022-08-24T16:33:57.000Z,303.84
2022-08-24T16:36:03.000Z,303.77
2022-08-24T16:37:29.000Z,303.71
2022-08-24T16:39:36.000Z,303.71
2022-08-24T16:41:02.000Z,303.71
2022-08-24T16:43:08.000Z,303.59
2022-08-24T16:44:36.000Z,303.59
2022-08-24T16:46:42.000Z,303.46
2022-08-24T16:48:12.000Z,303.46
2022-08-24T16:50:18.000Z,303.46
2022-08-24T16:51:46.000Z,303.4
2022-08-24T16:53:52.000Z,303.4
2022-08-24T16:56:43.000Z,303.34
2022-08-24T16:58:10.000Z,303.27
2022-08-24T17:00:16.000Z,303.09
2022-08-24T17:01:43.000Z,302.9
2022-08-24T17:03:49.000Z,302.77
2022-08-24T17:05:15.000Z,302.65
2022-08-24T17:07:22.000Z,302.59
2022-08-24T17:08:48.000Z,302.59
2022-08-24T17:10:54.000Z,302.46
2022-08-24T17:12:21.000Z,302.27
2022-08-24T17:14:27.000Z,302.15
2022-08-24T17:15:53.000Z,302.09
2022-08-24T17:18:00.000Z,301.9
2022-08-24T17:19:26.000Z,301.84
2022-08-24T17:21:34.000Z,301.71
2022-08-24T17:23:01.000Z,301.71
2022-08-24T17:25:07.000Z,301.59
2022-08-24T17:26:33.000Z,301.52
2022-08-24T17:28:39.000Z,301.34
2022-08-24T17:30:06.000Z,301.4
2022-08-24T17:32:12.000Z,301.27
2022-08-24T17:35:04.000Z,301.02
2022-08-24T17:36:30.000Z,301.09
2022-08-24T17:38:37.000Z,301.02
2022-08-24T17:40:03.000Z,300.9
2022-08-24T17:42:09.000Z,300.52
2022-08-24T17:43:58.000Z,300.46
2022-08-24T17:46:04.000Z,300.4
2022-08-24T17:47:31.000Z,300.27
2022-08-24T17:49:37.000Z,300.21
2022-08-24T17:51:03.000Z,300.02
2022-08-24T17:53:10.000Z,299.96
2022-08-24T17:54:36.000Z,299.96
2022-08-24T17:56:42.000Z,299.9
2022-08-24T17:58:09.000Z,299.9
2022-08-24T18:00:15.000Z,299.52
2022-08-24T18:01:42.000Z,299.52
2022-08-24T18:03:48.000Z,299.27
2022-08-24T18:05:14.000Z,299.27
2022-08-24T18:07:20.000Z,299.02
2022-08-24T18:09:16.000Z,298.9
2022-08-24T18:11:23.000Z,298.84
2022-08-24T18:14:15.000Z,298.77
2022-08-24T18:15:42.000Z,298.46
2022-08-24T18:17:48.000Z,298.21
2022-08-24T18:19:14.000Z,298.21
2022-08-24T18:21:25.000Z,297.9
2022-08-24T18:22:52.000Z,297.65
2022-08-24T18:24:59.000Z,297.46
2022-08-24T18:26:26.000Z,297.4
2022-08-24T18:28:33.000Z,297.34
2022-08-24T18:30:00.000Z,297.21
2022-08-24T18:32:07.000Z,296.71
2022-08-24T18:33:34.000Z,296.59
2022-08-24T18:35:40.000Z,296.59
2022-08-24T18:37:06.000Z,296.46
2022-08-24T18:39:12.000Z,296.15
2022-08-24T18:40:39.000Z,296.21
2022-08-24T18:42:57.000Z,296.09
2022-08-24T18:44:24.000Z,296.09
2022-08-24T18:46:36.000Z,295.96
2022-08-24T18:48:02.000Z,295.84
2022-08-24T18:50:08.000Z,295.59
2022-08-24T18:53:03.000Z,295.46
2022-08-24T18:54:30.000Z,295.46
2022-08-24T18:56:36.000Z,295.15
2022-08-24T18:58:03.000Z,295.21
2022-08-24T19:00:09.000Z,295.21
2022-08-24T19:01:35.000Z,295.21
2022-08-24T19:03:42.000Z,294.96
2022-08-24T19:05:08.000Z,294.84
2022-08-24T19:07:14.000Z,294.65
2022-08-24T19:08:41.000Z,294.65
2022-08-24T19:10:47.000Z,294.46
2022-08-24T19:12:14.000Z,294.65
2022-08-24T19:14:20.000Z,294.4
2022-08-24T19:15:46.000Z,294.46
2022-08-24T19:17:52.000Z,294.27
2022-08-24T19:19:19.000Z,294.27
2022-08-24T19:21:25.000Z,294.15
2022-08-24T19:22:52.000Z,294.09
2022-08-24T19:24:58.000Z,294.02
2022-08-24T19:26:24.000Z,294.02
2022-08-24T19:28:31.000Z,294.15
2022-08-24T19:31:22.000Z,293.84
2022-08-24T19:32:49.000Z,293.77
2022-08-24T19:34:55.000Z,293.65
2022-08-24T19:36:21.000Z,293.52
2022-08-24T19:38:27.000Z,293.52
2022-08-24T19:39:54.000Z,293.4
2022-08-24T19:42:00.000Z,293.65
2022-08-24T19:43:27.000Z,293.65
2022-08-24T19:45:33.000Z,293.52
2022-08-24T19:47:00.000Z,293.59
2022-08-24T19:49:06.000Z,293.27
2022-08-24T19:50:33.000Z,293.27
2022-08-24T19:52:40.000Z,293.21
2022-08-24T19:54:06.000Z,293.21
2022-08-24T19:56:13.000Z,293.02
2022-08-24T19:57:39.000Z,293.21
2022-08-24T19:59:45.000Z,293.21
2022-08-24T20:01:12.000Z,293.4
2022-08-24T20:03:18.000Z,293.15
2022-08-24T20:04:45.000Z,293.09
2022-08-24T20:06:51.000Z,292.84
2022-08-24T20:09:42.000Z,292.52
2022-08-24T20:11:08.000Z,292.52
2022-08-24T20:13:14.000Z,292.52
2022-08-24T20:14:41.000Z,292.52
2022-08-24T20:16:47.000Z,292.46
2022-08-24T20:18:14.000Z,292.34
2022-08-24T20:20:20.000Z,292.27
2022-08-24T20:21:46.000Z,292.46
2022-08-24T20:23:52.000Z,292.59
2022-08-24T20:25:19.000Z,292.65
2022-08-24T20:27:25.000Z,292.4
2022-08-24T20:28:51.000Z,292.34
2022-08-24T20:30:58.000Z,292.09
2022-08-24T20:32:24.000Z,292.02
2022-08-24T20:34:30.000Z,291.84
2022-08-24T20:35:57.000Z,291.96
2022-08-24T20:38:03.000Z,291.96
2022-08-24T20:39:30.000Z,291.96
2022-08-24T20:41:36.000Z,291.71
2022-08-24T20:43:02.000Z,291.71
2022-08-24T20:45:09.000Z,291.71
2022-08-24T20:48:00.000Z,291.77
2022-08-24T20:49:27.000Z,291.59
2022-08-24T20:51:33.000Z,291.46
2022-08-24T20:53:03.000Z,291.34
2022-08-24T20:55:09.000Z,291.34
2022-08-24T20:56:37.000Z,291.4
2022-08-24T20:58:43.000Z,291.21
2022-08-24T21:00:09.000Z,291.27
2022-08-24T21:02:15.000Z,291.21
2022-08-24T21:03:42.000Z,291.09
2022-08-24T21:05:48.000Z,291.21
2022-08-24T21:07:15.000Z,291.15
2022-08-24T21:09:21.000Z,291.02
2022-08-24T21:10:47.000Z,291.02
2022-08-24T21:12:53.000Z,291.15
2022-08-24T21:14:20.000Z,291.15
2022-08-24T21:16:26.000Z,290.96
2022-08-24T21:17:53.000Z,290.84
2022-08-24T21:19:59.000Z,290.9
2022-08-24T21:21:25.000Z,290.96
2022-08-24T21:23:32.000Z,290.9
2022-08-24T21:26:23.000Z,290.9
2022-08-24T21:27:49.000Z,290.84
2022-08-24T21:29:55.000Z,290.9
2022-08-24T21:31:22.000Z,290.77
2022-08-24T21:33:28.000Z,290.84
2022-08-24T21:34:55.000Z,290.84
2022-08-24T21:37:02.000Z,290.59
2022-08-24T21:38:28.000Z,290.52
2022-08-24T21:40:34.000Z,290.59
2022-08-24T21:42:01.000Z,290.52
2022-08-24T21:44:07.000Z,290.46
2022-08-24T21:45:34.000Z,290.34
2022-08-24T21:47:40.000Z,290.27
2022-08-24T21:49:06.000Z,290.34
2022-08-24T21:51:16.000Z,290.21
2022-08-24T21:52:43.000Z,290.21
2022-08-24T21:54:49.000Z,290.21
2022-08-24T21:56:15.000Z,290.09
2022-08-24T21:58:23.000Z,290.02
2022-08-24T21:59:49.000Z,290.09
2022-08-24T22:01:56.000Z,290.02
2022-08-24T22:04:47.000Z,289.9
2022-08-24T22:06:21.000Z,289.96
2022-08-24T22:08:31.000Z,290.15
2022-08-24T22:09:57.000Z,290.02
2022-08-24T22:12:03.000Z,289.96
2022-08-24T22:13:30.000Z,289.96
2022-08-24T22:15:36.000Z,289.84
2022-08-24T22:17:02.000Z,289.9
2022-08-24T22:19:09.000Z,289.9
2022-08-24T22:20:35.000Z,289.9
2022-08-24T22:22:41.000Z,289.9
2022-08-24T22:24:08.000Z,289.84
2022-08-24T22:26:14.000Z,289.77
2022-08-24T22:27:41.000Z,289.77
2022-08-24T22:29:47.000Z,289.71
2022-08-24T22:31:17.000Z,289.71
2022-08-24T22:33:23.000Z,289.65
2022-08-24T22:34:50.000Z,289.77
2022-08-24T22:36:56.000Z,289.84
2022-08-24T22:38:22.000Z,289.84
2022-08-24T22:40:28.000Z,289.84
2022-08-24T22:43:21.000Z,290.02
2022-08-24T22:44:49.000Z,289.96
2022-08-24T22:46:55.000Z,289.84
2022-08-24T22:48:22.000Z,289.71
2022-08-24T22:50:30.000Z,289.65
2022-08-24T22:51:57.000Z,289.71
2022-08-24T22:54:03.000Z,289.59
2022-08-24T22:55:29.000Z,289.52
2022-08-24T22:57:36.000Z,289.46
2022-08-24T22:59:02.000Z,289.4
2022-08-24T23:01:08.000Z,289.34
2022-08-24T23:02:35.000Z,289.27